TOURFACTS.DK  
Stats and Facts from Tour de France.

Tour de France 2018 starts in 167 days
  Riders   Stages   Teams   Summits   Yearly  


 
Search by year

 2017 - St.21:
 14824 starters.
  5132 different riders.
  635 teams.
  2232 stages.
  454 restdays.
  439589.60 km.
  5653 abandonnees.


Top 3
GC
Christopher Froome86:20:55
Rigoberto Uran86:21:49
Romain Bardet86:23:15
Climb
Warren Barguil169 pt.
Primoz Roglic80 pt.
Thomas De Gendt64 pt.
Sprint
Michael Matthews359 pt.
André Greipel234 pt.
Edvald Boasson Hagen220 pt.
Youth
Simon Yates86:27:09
Louis Meintjes86:29:15
Emanuel Buchmann86:54:16
Facts from Tour de France 1950
  |   Stages.  |   Stage winners.  |   Days in yellow  |   Average speed.  |   Route.  |   Teams.  |   All riders.  |   Rookies.  |   Withdrawls.  |  

  |   GC.  |   Polka  |   Green  |   White  |   Summits. (In tour)  |   Summits. (Points)  |   Miscellaneous.  |  

Stage 2 on 14 - 07 - 1950
         Owning:    Jean Goldschmit    
Pick a stage:  1 2 3 4 5 6 7 8 9 10 11 12 13 14 15 16 17 18 19 20 21 22
  MetzLiège | Dist: 241.00 km.

Average speed for all riders in stage:  33,744 km./hr.
    Place:Name:Team:Time:Km/h:
ITAAdolfo LeoniITACadetti Italiens07:02:07  +  00:00:00=34,256 
ITAVittorio MagniITAItaly07:02:07  +  00:00:00=34,256 
FRALouison BobetFRAFrance07:02:07  +  00:00:00=34,256 
4 SUIFerdi KüblerCHESwitzerland07:02:07  +  00:00:00=34,256 
5 BELBriek SchotteBELBelgium07:02:07  +  00:00:00=34,256 
6 BELMarcel HendrickxBELBelgium07:02:07  +  00:00:00=34,256 
7 BELHilaire CouvreurBELBelgium07:02:07  +  00:00:00=34,256 
8 BELJan StormsBELAiglons Belges07:02:07  +  00:00:00=34,256 
9 ITAGino BartaliITAItaly07:02:07  +  00:00:00=34,256 
10 FRARobert ChapatteFRAParis07:02:07  +  00:00:00=34,256 
11 ITAGiulio BresciITACadetti Italiens07:02:07  +  00:00:00=34,256 
12 LUXJean KirchenLUXLuxembourg07:02:07  +  00:00:00=34,256 
13 LUXHenri KellenLUXLuxembourg07:02:07  +  00:00:00=34,256 
14 LUXJean GoldschmitLUXLuxembourg07:02:07  +  00:00:00=34,256 
15 FRAKléber PiotFRAIle De France-North East07:02:07  +  00:00:00=34,256 
16 BELRoger LambrechtBELBelgium07:02:07  +  00:00:00=34,256 
17 LUXJean DiederichLUXLuxembourg07:02:07  +  00:00:00=34,256 
18 FRAAntonin RollandFRASouth-East07:02:07  +  00:00:00=34,256 
19 FRABernard GauthierFRASouth-East07:02:07  +  00:00:00=34,256 
20 FRAJean RobicFRAWest07:02:07  +  00:00:00=34,256 
21 FRAMarius BonnetFRASouth-East07:02:07  +  00:00:00=34,256 
22 FRAGeorges MeunierFRACenter-South West07:02:07  +  00:00:00=34,256 
23 FRARobert BonnaventureFRAWest07:02:40  +  00:00:33=34,211 
24 ITAVirgilio SalimbeniITAItaly07:02:47  +  00:00:40=34,202 
25 FRARaphaël GeminianiFRAFrance07:02:58  +  00:00:51=34,187 
26 FRAGilbert BauvinFRAIle De France-North East07:02:58  +  00:00:51=34,187 
27 ALGMarcel ZelascoNAFNorth Africa07:03:12  +  00:01:05=34,168 
28 MARCustodio Dos ReisNAFNorth Africa07:03:12  +  00:01:05=34,168 
29 FRARoger PontetFRAWest07:03:12  +  00:01:05=34,168 
30 FRAAntonin CanaveseFRASouth-East07:03:12  +  00:01:05=34,168 
31 FRAJean BaldassariFRAParis07:03:12  +  00:01:05=34,168 
32 SUIPierre BrambillaFRASouth-East07:03:12  +  00:01:05=34,168 
33 ITAAlfredo PasottiITACadetti Italiens07:03:12  +  00:01:05=34,168 
34 BELAlbert DubuissonBELAiglons Belges07:03:12  +  00:01:05=34,168 
35 BELRaymond ImpanisBELBelgium07:03:12  +  00:01:05=34,168 
36 BELStan OckersBELBelgium07:03:12  +  00:01:05=34,168 
37 BELEduard Van EndeBELBelgium07:03:12  +  00:01:05=34,168 
38 SUIEmilio Croci TortiCHESwitzerland07:03:12  +  00:01:05=34,168 
39 FRAPaul GiguetFRAFrance07:03:12  +  00:01:05=34,168 
40 BELMarcel DupontBELBelgium07:03:12  +  00:01:05=34,168 
41 FRAPierre MolinerisFRAFrance07:03:12  +  00:01:05=34,168 
42 FRADaniel ThuayreFRAIle De France-North East07:04:12  +  00:02:05=34,088 
43 FRAMaurice De MuerFRAIle De France-North East07:04:21  +  00:02:14=34,076 
44 FRADominique ForliniFRAParis07:05:32  +  00:03:25=33,981 
45 FRASerge BlussonFRAParis07:05:32  +  00:03:25=33,981 
46 FRARobert DesbatsFRAFrance07:05:56  +  00:03:49=33,949 
47 FRAMarcel DussaultFRACenter-South West07:05:56  +  00:03:49=33,949 
48 FRAPierre CoganFRACenter-South West07:05:56  +  00:03:49=33,949 
49 BELMarcel VerschuerenBELAiglons Belges07:06:14  +  00:04:07=33,925 
50 NEDFrans VosNLDHolland07:07:15  +  00:05:08=33,844 
51 FRAJacques RenaudFRAParis07:07:33  +  00:05:26=33,821 
52 MEXAttilio LambertiniITAItaly07:07:38  +  00:05:31=33,814 
53 FRAAndré BruléFRAIle De France-North East07:07:44  +  00:05:37=33,806 
54 FRARoger ChupinFRAWest07:07:49  +  00:05:42=33,800 
55 LUXMarcel ErnzerLUXLuxembourg07:07:49  +  00:05:42=33,800 
56 BELMaurice BlommeBELBelgium07:07:49  +  00:05:42=33,800 
57 NEDHenk de HoogNLDHolland07:07:49  +  00:05:42=33,800 
58 ITAGaliano PividoriFRAIle De France-North East07:07:49  +  00:05:42=33,800 
59 FRABasile DecortèsFRAWest07:07:49  +  00:05:42=33,800 
60 FRARobert CastelinFRASouth-East07:07:49  +  00:05:42=33,800 
61 FRAMaurice QuentinFRAParis07:07:49  +  00:05:42=33,800 
62 FRAPaul PineauFRACenter-South West07:07:49  +  00:05:42=33,800 
63 ITAValerio BoniniITACadetti Italiens07:07:49  +  00:05:42=33,800 
64 FRAAlain MoineauFRACenter-South West07:07:49  +  00:05:42=33,800 
65 SUIGeorges AeschlimannCHESwitzerland07:07:49  +  00:05:42=33,800 
66 NEDJoseph JanssenNLDHolland07:07:49  +  00:05:42=33,800 
67 NEDWout WagtmansNLDHolland07:08:08  +  00:06:01=33,775 
68 ITAGiuseppe TaccaFRAIle De France-North East07:08:38  +  00:06:31=33,735 
69 FRAJacques MarinelliFRAFrance07:08:38  +  00:06:31=33,735 
70 FRARoger QueugnetFRAIle De France-North East07:08:38  +  00:06:31=33,735 
71 LUXWilly KempLUXLuxembourg07:08:38  +  00:06:31=33,735 
72 FRARaoul RemyFRASouth-East07:08:38  +  00:06:31=33,735 
73 ALGAhmed KebaïliNAFNorth Africa07:08:38  +  00:06:31=33,735 
74 ITASylvio PedroniITAItaly07:08:38  +  00:06:31=33,735 
75 ITAAttilio RedolfiFRAIle De France-North East07:08:38  +  00:06:31=33,735 
76 MARMax CharroinNAFNorth Africa07:08:38  +  00:06:31=33,735 
77 BELMarcel De MulderBELAiglons Belges07:08:38  +  00:06:31=33,735 
78 FRAEmile BaffertFRAFrance07:08:38  +  00:06:31=33,735 
79 FRARené BertonFRACenter-South West07:08:38  +  00:06:31=33,735 
80 ITAAlberto GhirardiITACadetti Italiens07:08:38  +  00:06:31=33,735 
81 BELArmand BaeyensBELAiglons Belges07:08:38  +  00:06:31=33,735 
82 ITAGino SciardisFRAWest07:08:38  +  00:06:31=33,735 
83 NEDGerrit VoortingNLDHolland07:08:38  +  00:06:31=33,735 
84 FRARobert DorgebrayFRAParis07:08:38  +  00:06:31=33,735 
85 FRAMaurice KallertFRASouth-East07:08:38  +  00:06:31=33,735 
86 FRAJean-Apotre LazaridesFRAFrance07:08:38  +  00:06:31=33,735 
87 ITANello LaurediFRAFrance07:08:38  +  00:06:31=33,735 
88 FRARoger CretonFRAWest07:08:38  +  00:06:31=33,735 
89 FRANoel LajoieFRACenter-South West07:08:38  +  00:06:31=33,735 
90 ALGAbdel-Kader ZaafNAFNorth Africa07:08:38  +  00:06:31=33,735 
91 ITASerifano BiagioniITAItaly07:12:54  +  00:10:47=33,403 
92 FRAHervé ProuzetFRACenter-South West07:12:59  +  00:10:52=33,396 
93 SUIGottfried WeilenmannCHESwitzerland07:13:39  +  00:11:32=33,345 
94 FRALouis DeprezFRAFrance07:13:39  +  00:11:32=33,345 
95 FRAJean-Marie GoasmatFRAWest07:13:39  +  00:11:32=33,345 
96 FRAJosé BeyaertFRAParis07:13:51  +  00:11:44=33,329 
97 FRAAndre MahéFRAWest07:13:51  +  00:11:44=33,329 
98 SUIMartin MetzgerCHESwitzerland07:13:51  +  00:11:44=33,329 
99 FRAEmile RolFRASouth-East07:17:02  +  00:14:55=33,087 
100 BELLeopold De RijckeBELAiglons Belges07:20:15  +  00:18:08=32,845 
101 ITALuciano PezziITAItaly07:20:15  +  00:18:08=32,845 
102 ITAGiovanni CorrieriITAItaly07:20:48  +  00:18:41=32,804 
103 POLAntoine FrankowskiFRAParis07:20:48  +  00:18:41=32,804 
104 ITAAngelo BrignoleITAItaly07:20:48  +  00:18:41=32,804 
105 ALGMarcel MolinesNAFNorth Africa07:20:48  +  00:18:41=32,804 
106 ITARemo SabattiniITACadetti Italiens07:20:48  +  00:18:41=32,804 
107 FRALucien LaukFRAParis07:20:48  +  00:18:41=32,804 
108 NEDWim De RuyterNLDHolland07:20:48  +  00:18:41=32,804 
109 ITANello SforacchiFRAIle De France-North East07:20:48  +  00:18:41=32,804 
110 FRAArmand AudaireFRAWest07:20:48  +  00:18:41=32,804 
111 SUIFritz ZbindenCHESwitzerland07:20:48  +  00:18:41=32,804 
112 FRAArmand DarnauguilhemFRACenter-South West07:22:44  +  00:20:37=32,661 
113 ESPBernard FernandezFRACenter-South West07:23:20  +  00:21:13=32,617 
114 ITAPaul NeriFRASouth-East07:23:37  +  00:21:30=32,596 
115 BELJoseph VerhaertBELBelgium07:27:37  +  00:25:30=32,304 
116 ITAGuido De SantiITAItaly07:29:32  +  00:27:25=32,167 


Todays birthdays.

1886  Giuseppe Santhia
1907  Allegro Grandi
1936  Anton van der Steen
1952  Glauco Santoni
1957  Antonio Ferretti
1963  Silvio Martinello
1967  Alvaro Mejia
1972  Paul Van Hyfte
1984  Aurélien Passeron




Visits: